Time;durP1;ratioP1;P1;durP2;ratioP2;P2;SDS_P1;SDS_P2;PMS_P1;PMS_P2;Temp;Humidity;BMP_temperature;BMP_pressure;BME280_temperature;BME280_humidity;BME280_pressure;Samples;Min_cycle;Max_cycle;Signal;HPM_P1;HPM_P2
2021/07/08 00:01:58;;;;;;;1.00;0.97;;;14.80;99.90;;;-143.50;100.00;58913.53;4995870;28;20446;-71
2021/07/08 00:04:28;;;;;;;0.80;0.70;;;14.80;99.90;;;-143.50;100.00;58913.53;4994144;28;20446;-71
2021/07/08 00:06:57;;;;;;;0.70;0.70;;;14.70;99.90;;;-143.50;100.00;58913.53;4994825;28;20973;-70
2021/07/08 00:09:24;;;;;;;1.33;1.23;;;14.70;99.90;;;-143.50;100.00;58913.53;4995779;28;20465;-71
2021/07/08 00:11:52;;;;;;;0.80;0.70;;;14.70;99.90;;;-143.50;100.00;58913.53;4996262;28;20793;-71
2021/07/08 00:14:19;;;;;;;0.80;0.70;;;14.80;99.90;;;-143.50;100.00;58913.53;4995096;28;20512;-71
2021/07/08 00:16:47;;;;;;;0.70;0.60;;;14.90;99.90;;;-143.50;100.00;58913.53;4994500;28;20439;-70
2021/07/08 00:19:15;;;;;;;0.80;0.70;;;14.90;99.90;;;-143.50;100.00;58913.53;4995648;28;20442;-71
2021/07/08 00:21:42;;;;;;;0.80;0.70;;;14.80;99.90;;;-143.50;100.00;58913.53;4995131;28;20450;-71
2021/07/08 00:24:11;;;;;;;0.70;0.67;;;14.70;99.90;;;-143.50;100.00;58913.53;4995736;28;20508;-71
2021/07/08 00:26:38;;;;;;;0.80;0.70;;;14.70;99.90;;;-143.50;100.00;58913.53;4990839;28;20823;-71
2021/07/08 00:29:06;;;;;;;0.80;0.70;;;14.60;99.90;;;-143.50;100.00;58913.53;4990125;28;20451;-71
2021/07/08 00:31:33;;;;;;;0.70;0.70;;;14.60;99.90;;;-143.50;100.00;58913.53;5027103;28;20444;-71
2021/07/08 00:34:02;;;;;;;0.80;0.60;;;14.50;99.90;;;-143.50;100.00;58913.53;4995647;28;20427;-71
2021/07/08 00:36:30;;;;;;;0.70;0.70;;;14.50;99.90;;;-143.50;100.00;58913.53;4994236;28;20572;-71
2021/07/08 00:38:58;;;;;;;0.70;0.60;;;14.40;99.90;;;-143.50;100.00;58913.53;4995304;28;20452;-71
2021/07/08 00:41:27;;;;;;;0.77;0.70;;;14.40;99.90;;;-143.50;100.00;58913.53;4994466;28;20433;-72
2021/07/08 00:43:54;;;;;;;0.70;0.60;;;14.40;99.90;;;-143.50;100.00;58913.53;4993524;28;20520;-71
2021/07/08 00:46:22;;;;;;;0.80;0.70;;;14.30;99.90;;;-143.50;100.00;58913.53;4993750;28;20472;-71
2021/07/08 00:48:50;;;;;;;0.70;0.60;;;14.30;99.90;;;-143.50;100.00;58913.53;4995218;28;20436;-71
2021/07/08 00:51:18;;;;;;;0.70;0.70;;;14.30;99.90;;;-143.50;100.00;58913.53;4993835;28;20477;-71
2021/07/08 00:53:45;;;;;;;0.80;0.70;;;14.30;99.90;;;-143.50;100.00;58913.53;4995099;28;20449;-71
2021/07/08 00:56:13;;;;;;;0.70;0.60;;;14.30;99.90;;;-143.50;100.00;58913.53;4992673;28;20466;-71
2021/07/08 00:59:00;;;;;;;0.80;0.80;;;14.30;99.90;;;-143.50;100.00;58913.53;4994991;28;20790;-70
2021/07/08 01:01:27;;;;;;;0.70;0.60;;;14.30;99.90;;;-143.50;100.00;58913.53;4994243;28;20461;-71
2021/07/08 01:03:56;;;;;;;0.70;0.60;;;14.30;99.90;;;-143.50;100.00;58913.53;4994951;28;20439;-70
2021/07/08 01:06:26;;;;;;;0.70;0.70;;;14.20;99.90;;;-143.50;100.00;58913.53;4995057;28;20473;-71
2021/07/08 01:08:54;;;;;;;0.70;0.60;;;14.20;99.90;;;-143.50;100.00;58913.53;4993602;28;20447;-71
2021/07/08 01:11:22;;;;;;;0.70;0.70;;;14.20;99.90;;;-143.50;100.00;58913.53;4992579;28;20950;-71
2021/07/08 01:13:51;;;;;;;0.70;0.70;;;14.10;99.90;;;-143.50;100.00;58913.53;4990969;28;20443;-71
2021/07/08 01:16:19;;;;;;;1.00;1.00;;;14.10;99.90;;;-143.50;100.00;58913.53;4993066;28;20489;-71
2021/07/08 01:18:48;;;;;;;0.70;0.70;;;14.00;99.90;;;-143.50;100.00;58913.53;4994061;28;20524;-72
2021/07/08 01:21:26;;;;;;;0.80;0.70;;;14.00;99.90;;;-143.50;100.00;58913.53;4976995;28;20509;-71
2021/07/08 01:23:55;;;;;;;0.80;0.70;;;14.10;99.90;;;-143.50;100.00;58913.53;4992293;28;20469;-71
2021/07/08 01:26:23;;;;;;;0.70;0.70;;;14.10;99.90;;;-143.50;100.00;58913.53;4992083;28;20477;-71
2021/07/08 01:28:52;;;;;;;0.70;0.60;;;14.20;99.90;;;-143.50;100.00;58913.53;4993313;28;20439;-71
2021/07/08 01:31:23;;;;;;;0.70;0.60;;;14.20;99.90;;;-143.50;100.00;58913.53;5024614;28;20457;-71
2021/07/08 01:33:52;;;;;;;0.70;0.70;;;14.20;99.90;;;-143.50;100.00;58913.53;5026162;28;20441;-71
2021/07/08 01:36:20;;;;;;;0.80;0.70;;;14.20;99.90;;;-143.50;100.00;58913.53;4994448;28;20460;-71
2021/07/08 01:38:49;;;;;;;0.80;0.70;;;14.20;99.90;;;-143.50;100.00;58913.53;4991812;28;20438;-71
2021/07/08 01:41:17;;;;;;;0.73;0.70;;;14.20;99.90;;;-143.50;100.00;58913.53;4993383;28;20950;-71
2021/07/08 01:43:45;;;;;;;0.70;0.70;;;14.20;99.90;;;-143.50;100.00;58913.53;4993301;28;20432;-71
2021/07/08 01:46:16;;;;;;;0.80;0.80;;;14.20;99.90;;;-143.50;100.00;58913.53;4993916;28;20482;-71
2021/07/08 01:48:46;;;;;;;0.70;0.70;;;14.20;99.90;;;-143.50;100.00;58913.53;4992242;28;20461;-71
2021/07/08 01:51:27;;;;;;;0.80;0.73;;;14.20;99.90;;;-143.50;100.00;58913.53;4992939;28;20431;-71
2021/07/08 01:53:57;;;;;;;0.70;0.70;;;14.20;99.90;;;-143.50;100.00;58913.53;4993100;28;20475;-71
2021/07/08 01:56:26;;;;;;;0.70;0.70;;;14.30;99.90;;;-143.50;100.00;58913.53;4993491;28;20430;-72
2021/07/08 01:58:54;;;;;;;0.70;0.60;;;14.30;99.90;;;-143.50;100.00;58913.53;4976757;28;20447;-71
2021/07/08 02:01:22;;;;;;;0.70;0.60;;;14.30;99.90;;;-143.50;100.00;58913.53;4991139;28;20798;-71
2021/07/08 02:03:50;;;;;;;0.80;0.70;;;14.20;99.90;;;-143.50;100.00;58913.53;4977004;28;20903;-71
2021/07/08 02:07:50;;;;;;;0.70;0.70;;;14.20;99.90;;;-143.50;100.00;58913.53;4992702;28;20515;-71
2021/07/08 02:11:10;;;;;;;0.70;0.60;;;14.10;99.90;;;-143.50;100.00;58913.53;4992829;28;20430;-71
2021/07/08 02:13:39;;;;;;;0.83;0.83;;;14.00;99.90;;;-143.50;100.00;58913.53;4992591;28;20435;-72
2021/07/08 02:16:09;;;;;;;0.70;0.70;;;14.00;99.90;;;-143.50;100.00;58913.53;4993810;28;20448;-71
2021/07/08 02:18:39;;;;;;;0.70;0.70;;;14.10;99.90;;;-143.50;100.00;58913.53;4992721;28;20863;-71
2021/07/08 02:21:07;;;;;;;0.73;0.70;;;14.10;99.90;;;-143.50;100.00;58913.53;4991985;28;20482;-71
2021/07/08 02:23:36;;;;;;;0.70;0.70;;;14.10;99.90;;;-143.50;100.00;58913.53;4992569;28;20516;-71
2021/07/08 02:26:04;;;;;;;0.73;0.70;;;14.10;99.90;;;-143.50;100.00;58913.53;4993391;28;20470;-71
2021/07/08 02:28:33;;;;;;;0.70;0.60;;;14.20;99.90;;;-143.50;100.00;58913.53;4993182;28;20499;-71
2021/07/08 02:31:02;;;;;;;0.70;0.70;;;14.30;99.90;;;-143.50;100.00;58913.53;4992790;28;20478;-71
2021/07/08 02:33:29;;;;;;;0.70;0.63;;;14.40;99.90;;;-143.50;100.00;58913.53;4993662;28;20414;-71
2021/07/08 02:35:57;;;;;;;0.70;0.60;;;14.50;99.90;;;-143.50;100.00;58913.53;4993476;28;20922;-71
2021/07/08 02:38:25;;;;;;;0.77;0.70;;;14.50;99.90;;;-143.50;100.00;58913.53;4992809;28;20457;-71
2021/07/08 02:40:52;;;;;;;0.70;0.70;;;14.60;99.90;;;-143.50;100.00;58913.53;4993497;28;20460;-71
2021/07/08 02:43:20;;;;;;;0.80;0.70;;;14.60;99.90;;;-143.50;100.00;58913.53;4993277;28;20459;-72
2021/07/08 02:45:48;;;;;;;0.70;0.60;;;14.60;99.90;;;-143.50;100.00;58913.53;4991971;28;20537;-71
2021/07/08 02:48:19;;;;;;;0.80;0.70;;;14.50;99.90;;;-143.50;100.00;58913.53;4993829;28;20536;-71
2021/07/08 02:50:51;;;;;;;0.90;0.90;;;14.50;99.90;;;-143.50;100.00;58913.53;4993213;28;20455;-71
2021/07/08 02:53:20;;;;;;;0.70;0.60;;;14.40;99.90;;;-143.50;100.00;58913.53;4993620;28;20446;-71
2021/07/08 02:55:49;;;;;;;0.80;0.80;;;14.30;99.90;;;-143.50;100.00;58913.53;4992677;28;20827;-71
2021/07/08 02:58:18;;;;;;;0.70;0.70;;;14.30;99.90;;;-143.50;100.00;58913.53;4993732;28;20414;-70
2021/07/08 03:00:48;;;;;;;0.70;0.60;;;14.20;99.90;;;-143.50;100.00;58913.53;5024490;28;20445;-71
2021/07/08 03:03:16;;;;;;;0.70;0.60;;;14.20;99.90;;;-143.50;100.00;58913.53;4993306;28;20424;-71
2021/07/08 03:05:44;;;;;;;0.70;0.70;;;14.20;99.90;;;-143.50;100.00;58913.53;4992779;28;20504;-72
2021/07/08 03:08:11;;;;;;;0.70;0.60;;;14.20;99.90;;;-143.50;100.00;58913.53;4992929;28;20443;-71
2021/07/08 03:10:39;;;;;;;0.70;0.67;;;14.20;99.90;;;-143.50;100.00;58913.53;4993234;28;20434;-71
2021/07/08 03:13:07;;;;;;;0.70;0.63;;;14.20;99.90;;;-143.50;100.00;58913.53;4992665;28;20530;-71
2021/07/08 03:15:35;;;;;;;0.70;0.60;;;14.20;99.90;;;-143.50;100.00;58913.53;5022853;28;20538;-72
2021/07/08 03:18:05;;;;;;;0.70;0.67;;;14.20;99.90;;;-143.50;100.00;58913.53;4992258;28;20545;-71
2021/07/08 03:20:34;;;;;;;0.70;0.70;;;14.20;99.90;;;-143.50;100.00;58913.53;4990299;28;20471;-71
2021/07/08 03:23:04;;;;;;;0.70;0.60;;;14.20;99.90;;;-143.50;100.00;58913.53;4991528;28;20458;-70
2021/07/08 03:25:32;;;;;;;0.70;0.60;;;14.20;99.90;;;-143.50;100.00;58913.53;4991975;28;20455;-71
2021/07/08 03:28:00;;;;;;;0.70;0.60;;;14.30;99.90;;;-143.50;100.00;58913.53;4991723;28;20493;-71
2021/07/08 03:30:30;;;;;;;0.70;0.60;;;14.30;99.90;;;-143.50;100.00;58913.53;4991690;28;20474;-71
2021/07/08 03:32:59;;;;;;;0.70;0.70;;;14.30;99.90;;;-143.50;100.00;58913.53;4992579;28;20838;-71
2021/07/08 03:35:29;;;;;;;0.73;0.70;;;14.30;99.90;;;-143.50;100.00;58913.53;4991332;28;20469;-71
2021/07/08 03:37:58;;;;;;;0.70;0.60;;;14.30;99.90;;;-143.50;100.00;58913.53;4991928;28;20468;-71
2021/07/08 03:40:27;;;;;;;0.70;0.67;;;14.30;99.90;;;-143.50;100.00;58913.53;4991982;28;20850;-71
2021/07/08 03:42:55;;;;;;;0.70;0.70;;;14.40;99.90;;;-143.50;100.00;58913.53;4976760;28;20423;-71
2021/07/08 03:45:23;;;;;;;0.70;0.60;;;14.40;99.90;;;-143.50;100.00;58913.53;4987286;28;20970;-71
2021/07/08 03:47:52;;;;;;;0.70;0.70;;;14.50;99.90;;;-143.50;100.00;58913.53;4995118;28;20487;-71
2021/07/08 03:50:21;;;;;;;0.70;0.60;;;14.50;99.90;;;-143.50;100.00;58913.53;4994948;28;20439;-71
2021/07/08 03:52:50;;;;;;;0.70;0.60;;;14.50;99.90;;;-143.50;100.00;58913.53;4995839;28;20496;-71
2021/07/08 03:55:21;;;;;;;0.70;0.60;;;14.50;99.90;;;-143.50;100.00;58913.53;4991096;28;20438;-71
2021/07/08 03:57:58;;;;;;;0.70;0.60;;;14.50;99.90;;;-143.50;100.00;58913.53;4996779;28;20431;-72
2021/07/08 04:00:32;;;;;;;0.70;0.60;;;14.50;99.90;;;-143.50;100.00;58913.53;4995680;28;20521;-71
2021/07/08 04:03:03;;;;;;;0.70;0.70;;;14.40;99.90;;;-143.50;100.00;58913.53;4995974;28;20427;-71
2021/07/08 04:05:31;;;;;;;0.70;0.70;;;14.40;99.90;;;-143.50;100.00;58913.53;4986440;28;20940;-71
2021/07/08 04:08:00;;;;;;;0.70;0.70;;;14.40;99.90;;;-143.50;100.00;58913.53;4996038;28;20498;-71
2021/07/08 04:10:28;;;;;;;0.80;0.70;;;14.40;99.90;;;-143.50;100.00;58913.53;5027178;28;20793;-71
2021/07/08 04:13:01;;;;;;;0.77;0.73;;;14.50;99.90;;;-143.50;100.00;58913.53;4995056;28;20439;-71
2021/07/08 04:15:29;;;;;;;0.70;0.60;;;14.60;99.90;;;-143.50;100.00;58913.53;4993915;28;20521;-71
2021/07/08 04:17:57;;;;;;;0.70;0.70;;;14.70;99.90;;;-143.50;100.00;58913.53;4995417;28;20909;-71
2021/07/08 04:20:25;;;;;;;0.70;0.63;;;14.70;99.90;;;-143.50;100.00;58913.53;4996125;28;20470;-71
2021/07/08 04:22:53;;;;;;;0.70;0.60;;;14.70;99.90;;;-143.50;100.00;58913.53;4995040;28;20522;-71
2021/07/08 04:25:23;;;;;;;0.70;0.70;;;14.70;99.90;;;-143.50;100.00;58913.53;4995263;28;20445;-71
2021/07/08 04:27:51;;;;;;;0.70;0.70;;;14.80;99.90;;;-143.50;100.00;58913.53;4995306;28;20882;-72
2021/07/08 04:30:21;;;;;;;0.80;0.80;;;14.80;99.90;;;-143.50;100.00;58913.53;4995667;28;20828;-71
2021/07/08 04:32:50;;;;;;;0.77;0.70;;;14.80;99.90;;;-143.50;100.00;58913.53;4995182;28;20501;-71
2021/07/08 04:35:21;;;;;;;0.70;0.70;;;14.90;99.90;;;-143.50;100.00;58913.53;4994368;28;20442;-71
2021/07/08 04:37:49;;;;;;;0.70;0.70;;;14.90;99.90;;;-143.50;100.00;58913.53;4993113;28;20978;-71
2021/07/08 04:40:19;;;;;;;0.73;0.63;;;15.00;99.90;;;-143.50;100.00;58913.53;4994567;28;20421;-71
2021/07/08 04:42:51;;;;;;;0.80;0.70;;;15.10;99.90;;;-143.50;100.00;58913.53;4995153;28;20442;-71
2021/07/08 04:45:20;;;;;;;0.77;0.70;;;15.20;99.90;;;-143.50;100.00;58913.53;4977946;28;20463;-72
2021/07/08 04:47:48;;;;;;;0.70;0.70;;;15.20;99.90;;;-143.50;100.00;58913.53;4994430;28;20523;-71
2021/07/08 04:50:19;;;;;;;0.70;0.63;;;15.30;99.90;;;-143.50;100.00;58913.53;4994972;28;20457;-72
2021/07/08 04:52:48;;;;;;;0.80;0.70;;;15.30;99.90;;;-143.50;100.00;58913.53;4994141;28;20509;-71
2021/07/08 04:55:18;;;;;;;0.70;0.70;;;15.40;99.90;;;-143.50;100.00;58913.53;4993365;28;20484;-72
2021/07/08 04:57:45;;;;;;;0.70;0.70;;;15.50;99.90;;;-143.50;100.00;58913.53;4995151;28;20927;-71
2021/07/08 05:00:21;;;;;;;0.80;0.77;;;15.50;99.90;;;-143.50;100.00;58913.53;4994405;28;20434;-71
2021/07/08 05:02:50;;;;;;;0.80;0.70;;;15.60;99.90;;;-143.50;100.00;58913.53;4995201;28;20455;-71
2021/07/08 05:05:19;;;;;;;0.73;0.67;;;15.70;99.90;;;-143.50;100.00;58913.53;4993921;28;20777;-71
2021/07/08 05:07:48;;;;;;;0.70;0.70;;;15.70;99.90;;;-143.50;100.00;58913.53;4994075;28;20509;-71
2021/07/08 05:10:17;;;;;;;0.70;0.60;;;15.80;99.90;;;-143.50;100.00;58913.53;4992604;28;20448;-71
2021/07/08 05:12:45;;;;;;;0.70;0.60;;;15.80;99.90;;;-143.50;100.00;58913.53;4993803;28;20949;-71
2021/07/08 05:15:15;;;;;;;0.70;0.60;;;15.90;99.90;;;-143.50;100.00;58913.53;4992819;28;20562;-72
2021/07/08 05:17:46;;;;;;;0.70;0.70;;;15.90;99.90;;;-143.50;100.00;58913.53;4993586;28;20436;-72
2021/07/08 05:20:15;;;;;;;0.70;0.67;;;16.00;99.90;;;-143.50;100.00;58913.53;4994595;28;20442;-71
2021/07/08 05:22:45;;;;;;;0.80;0.77;;;16.10;99.90;;;-143.50;100.00;58913.53;4994150;28;20449;-71
2021/07/08 05:25:16;;;;;;;0.70;0.60;;;16.20;99.90;;;-143.50;100.00;58913.53;4991974;28;20498;-72
2021/07/08 05:27:45;;;;;;;0.80;0.70;;;16.20;99.90;;;-143.50;100.00;58913.53;4994131;28;20463;-71
2021/07/08 05:30:13;;;;;;;0.70;0.70;;;16.30;99.90;;;-143.50;100.00;58913.53;4993545;28;20438;-71
2021/07/08 05:32:41;;;;;;;0.80;0.70;;;16.40;99.90;;;-143.50;100.00;58913.53;4994609;28;20465;-71
2021/07/08 05:35:10;;;;;;;0.80;0.70;;;16.40;99.90;;;-143.50;100.00;58913.53;4993943;28;20506;-71
2021/07/08 05:37:38;;;;;;;0.70;0.70;;;16.50;99.90;;;-143.50;100.00;58913.53;5021048;28;20449;-71
2021/07/08 05:40:08;;;;;;;0.70;0.63;;;16.70;99.90;;;-143.50;100.00;58913.53;5001209;28;20492;-71
2021/07/08 05:42:36;;;;;;;0.70;0.60;;;16.70;99.90;;;-143.50;100.00;58913.53;4993782;28;20436;-71
2021/07/08 05:45:06;;;;;;;0.70;0.70;;;16.90;99.90;;;-143.50;100.00;58913.53;4989094;28;20442;-71
2021/07/08 05:47:34;;;;;;;0.70;0.60;;;17.10;99.90;;;-143.50;100.00;58913.53;5017151;28;20468;-72
2021/07/08 05:50:02;;;;;;;0.77;0.70;;;17.20;99.90;;;-143.50;100.00;58913.53;4994187;28;20525;-72
2021/07/08 05:52:31;;;;;;;0.70;0.70;;;17.30;99.90;;;-143.50;100.00;58913.53;4988156;28;20525;-72
2021/07/08 05:55:00;;;;;;;0.80;0.73;;;17.40;99.90;;;-143.50;100.00;58913.53;4991323;28;21024;-71
2021/07/08 05:57:30;;;;;;;0.70;0.60;;;17.50;99.90;;;-143.50;100.00;58913.53;4991953;28;20514;-71
2021/07/08 05:59:57;;;;;;;0.70;0.70;;;17.60;99.90;;;-143.50;100.00;58913.53;4992441;28;20433;-71
2021/07/08 06:02:26;;;;;;;0.70;0.60;;;17.70;99.90;;;-143.50;100.00;58913.53;4993891;28;20472;-71
2021/07/08 06:04:53;;;;;;;0.80;0.70;;;17.90;99.90;;;-143.50;100.00;58913.53;4984660;28;20454;-71
2021/07/08 06:07:20;;;;;;;0.70;0.70;;;17.90;99.90;;;-143.50;100.00;58913.53;4984580;28;20478;-71
2021/07/08 06:09:50;;;;;;;0.73;0.70;;;18.10;99.90;;;-143.50;100.00;58913.53;4993105;28;20935;-71
2021/07/08 06:12:17;;;;;;;0.70;0.70;;;18.20;99.90;;;-143.50;100.00;58913.53;4984149;28;20522;-71
2021/07/08 06:14:44;;;;;;;0.70;0.67;;;18.20;99.90;;;-143.50;100.00;58913.53;4989268;28;20460;-71
2021/07/08 06:17:12;;;;;;;0.80;0.70;;;18.20;99.90;;;-143.50;100.00;58913.53;4993927;28;20407;-71
2021/07/08 06:19:39;;;;;;;0.70;0.60;;;18.30;99.90;;;-143.50;100.00;58913.53;4993240;28;20464;-73
2021/07/08 06:22:07;;;;;;;0.70;0.67;;;18.50;99.90;;;-143.50;100.00;58913.53;4992121;28;20410;-71
2021/07/08 06:24:35;;;;;;;0.70;0.60;;;18.50;99.90;;;-143.50;100.00;58913.53;4989628;28;20467;-71
2021/07/08 06:31:29;;;;;;;0.70;0.60;;;18.70;99.90;;;-143.50;100.00;58913.53;4986534;28;20488;-71
2021/07/08 06:33:58;;;;;;;0.70;0.60;;;18.90;99.90;;;-143.50;100.00;58913.53;4978169;28;20443;-71
2021/07/08 06:36:28;;;;;;;0.80;0.70;;;19.10;99.90;;;-143.50;100.00;58913.53;5017079;28;20800;-71
2021/07/08 06:38:56;;;;;;;0.70;0.60;;;19.20;99.90;;;-143.50;100.00;58913.53;4976137;28;20462;-70
2021/07/08 06:41:24;;;;;;;0.80;0.70;;;19.40;99.90;;;-143.50;100.00;58913.53;4987114;28;20427;-70
2021/07/08 06:43:55;;;;;;;0.80;0.70;;;19.50;99.90;;;-143.50;100.00;58913.53;4990999;28;20538;-71
2021/07/08 06:46:30;;;;;;;0.70;0.60;;;19.60;99.90;;;-143.50;100.00;58913.53;4990026;28;20421;-71
2021/07/08 06:49:00;;;;;;;0.77;0.63;;;19.70;99.90;;;-143.50;100.00;58913.53;4991764;28;20446;-71
2021/07/08 06:51:29;;;;;;;0.70;0.60;;;19.80;99.90;;;-143.50;100.00;58913.53;4992139;28;20428;-70
2021/07/08 06:53:56;;;;;;;0.70;0.60;;;20.00;99.90;;;-143.50;100.00;58913.53;4983951;28;20787;-71
2021/07/08 06:56:24;;;;;;;0.70;0.70;;;20.10;99.90;;;-143.50;100.00;58913.53;4989016;28;20997;-71
2021/07/08 06:58:52;;;;;;;0.73;0.70;;;20.10;99.90;;;-143.50;100.00;58913.53;4979736;28;20824;-71
2021/07/08 07:01:20;;;;;;;0.70;0.60;;;20.20;99.90;;;-143.50;100.00;58913.53;4973180;28;20446;-71
2021/07/08 07:03:47;;;;;;;0.70;0.67;;;20.40;99.90;;;-143.50;100.00;58913.53;5004935;28;20495;-71
2021/07/08 07:06:16;;;;;;;0.70;0.60;;;20.50;99.90;;;-143.50;100.00;58913.53;4989960;28;20467;-71
2021/07/08 07:08:47;;;;;;;0.70;0.60;;;20.60;99.90;;;-143.50;100.00;58913.53;4989900;28;20488;-71
2021/07/08 07:11:15;;;;;;;0.70;0.60;;;20.70;99.90;;;-143.50;100.00;58913.53;4982068;28;20460;-71
2021/07/08 07:13:42;;;;;;;0.70;0.60;;;20.80;99.90;;;-143.50;100.00;58913.53;5013725;28;20451;-71
2021/07/08 07:16:10;;;;;;;0.70;0.60;;;20.90;99.90;;;-143.50;100.00;58913.53;4987274;28;20457;-71
2021/07/08 07:18:39;;;;;;;0.70;0.70;;;21.00;99.90;;;-143.50;100.00;58913.53;4991291;28;20432;-71
2021/07/08 07:21:11;;;;;;;0.73;0.67;;;21.10;99.90;;;-143.50;100.00;58913.53;4992923;28;20438;-72
2021/07/08 07:23:44;;;;;;;0.80;0.60;;;21.10;99.90;;;-143.50;100.00;58913.53;5008553;28;20469;-71
2021/07/08 07:26:13;;;;;;;0.70;0.60;;;21.20;99.90;;;-143.50;100.00;58913.53;4981178;28;20522;-72
2021/07/08 07:28:41;;;;;;;0.70;0.70;;;21.50;99.90;;;-143.50;100.00;58913.53;4977248;28;20550;-71
2021/07/08 07:31:09;;;;;;;0.80;0.70;;;21.50;99.90;;;-143.50;100.00;58913.53;4987651;28;20417;-71
2021/07/08 07:33:37;;;;;;;1.00;0.90;;;21.50;99.90;;;-143.50;100.00;58913.53;4988775;28;20439;-71
2021/07/08 07:36:05;;;;;;;0.70;0.70;;;21.70;99.90;;;-143.50;100.00;58913.53;5011227;28;20783;-71
2021/07/08 07:38:32;;;;;;;0.80;0.70;;;21.90;99.90;;;-143.50;100.00;58913.53;4992242;28;20791;-71
2021/07/08 07:41:02;;;;;;;0.70;0.60;;;22.10;99.90;;;-143.50;100.00;58913.53;4988027;28;20439;-71
2021/07/08 07:43:31;;;;;;;0.77;0.60;;;22.40;99.90;;;-143.50;100.00;58913.53;4995618;28;20541;-71
2021/07/08 07:45:58;;;;;;;0.70;0.50;;;22.40;99.90;;;-143.50;100.00;58913.53;4994607;28;20442;-72
2021/07/08 07:48:28;;;;;;;0.70;0.60;;;22.60;99.90;;;-143.50;100.00;58913.53;4988033;28;20469;-71
2021/07/08 07:50:56;;;;;;;0.70;0.60;;;22.50;99.90;;;-143.50;100.00;58913.53;4996319;28;20418;-71
2021/07/08 07:53:23;;;;;;;0.70;0.60;;;22.30;99.90;;;-143.50;100.00;58913.53;4994436;28;20475;-71
2021/07/08 07:55:51;;;;;;;0.80;0.70;;;22.40;99.90;;;-143.50;100.00;58913.53;4993454;28;20777;-71
2021/07/08 07:58:27;;;;;;;0.70;0.60;;;22.30;99.90;;;-143.50;100.00;58913.53;4981491;28;20490;-71
2021/07/08 08:01:19;;;;;;;0.70;0.60;;;22.30;99.90;;;-143.50;100.00;58913.53;4993278;28;20556;-71
2021/07/08 08:03:50;;;;;;;0.80;0.70;;;22.40;99.90;;;-143.50;100.00;58913.53;4995546;28;20419;-71
2021/07/08 08:09:03;;;;;;;0.70;0.60;;;22.40;99.90;;;-143.50;100.00;58913.53;4995292;28;20477;-71
2021/07/08 08:11:31;;;;;;;0.70;0.60;;;22.70;99.90;;;-143.50;100.00;58913.53;4994950;28;20418;-71
2021/07/08 08:14:00;;;;;;;0.70;0.60;;;23.10;99.90;;;-143.50;100.00;58913.53;4990287;28;20439;-72
2021/07/08 08:16:29;;;;;;;0.70;0.60;;;23.40;99.90;;;-143.50;100.00;58913.53;4991609;28;20443;-71
2021/07/08 08:18:56;;;;;;;0.70;0.60;;;23.80;99.90;;;-143.50;100.00;58913.53;4981887;28;20434;-71
2021/07/08 08:21:24;;;;;;;0.70;0.60;;;24.20;99.90;;;-143.50;100.00;58913.53;4976237;28;20412;-70
2021/07/08 08:23:52;;;;;;;0.70;0.60;;;24.50;99.90;;;-143.50;100.00;58913.53;4985305;28;20462;-69
2021/07/08 08:26:20;;;;;;;0.80;0.70;;;24.80;99.90;;;-143.50;100.00;58913.53;4986888;28;20991;-71
2021/07/08 08:28:51;;;;;;;0.70;0.60;;;25.00;99.90;;;-143.50;100.00;58913.53;4994867;28;20810;-70
2021/07/08 08:31:23;;;;;;;0.70;0.60;;;25.00;99.90;;;-143.50;100.00;58913.53;4992645;28;20422;-70
2021/07/08 08:33:51;;;;;;;0.70;0.60;;;25.00;99.90;;;-143.50;100.00;58913.53;4994482;28;20455;-69
2021/07/08 08:36:19;;;;;;;0.70;0.50;;;25.00;99.90;;;-143.50;100.00;58913.53;4994898;28;20419;-71
2021/07/08 08:38:47;;;;;;;0.70;0.60;;;25.30;99.90;;;-143.50;100.00;58913.53;4995110;28;20459;-72
2021/07/08 08:41:15;;;;;;;0.70;0.50;;;25.80;99.90;;;-143.50;100.00;58913.53;4995555;28;20473;-69
2021/07/08 08:43:43;;;;;;;0.70;0.60;;;26.40;99.90;;;-143.50;100.00;58913.53;4994237;28;20443;-69
2021/07/08 08:46:12;;;;;;;0.70;0.50;;;26.90;99.90;;;-143.50;100.00;58913.53;4995136;28;20477;-73
2021/07/08 08:48:41;;;;;;;0.77;0.60;;;26.80;99.90;;;-143.50;100.00;58913.53;5023247;28;21045;-72
2021/07/08 08:51:09;;;;;;;0.70;0.50;;;27.00;99.90;;;-143.50;100.00;58913.53;4978218;28;20875;-73
2021/07/08 08:53:36;;;;;;;0.70;0.60;;;27.20;99.90;;;-143.50;100.00;58913.53;4975868;28;21035;-73
2021/07/08 08:56:06;;;;;;;0.70;0.60;;;27.00;99.90;;;-143.50;100.00;58913.53;4975848;28;20564;-73
2021/07/08 08:58:34;;;;;;;0.70;0.50;;;27.00;99.90;;;-143.50;100.00;58913.53;4980415;28;20457;-73
2021/07/08 09:01:05;;;;;;;0.70;0.50;;;26.90;99.90;;;-143.50;100.00;58913.53;4988731;28;20837;-73
2021/07/08 09:03:35;;;;;;;0.70;0.50;;;26.90;99.90;;;-143.50;100.00;58913.53;4984365;28;20936;-73
2021/07/08 09:06:07;;;;;;;0.70;0.50;;;26.60;99.90;;;-143.50;100.00;58913.53;5015290;28;20554;-72
2021/07/08 09:08:37;;;;;;;0.70;0.50;;;26.60;99.90;;;-143.50;100.00;58913.53;4987757;28;20494;-73
2021/07/08 09:11:14;;;;;;;0.80;0.80;;;26.60;97.10;;;-143.50;100.00;58913.53;5001357;28;20419;-73
2021/07/08 09:14:02;;;;;;;0.70;0.50;;;26.90;95.00;;;-143.50;100.00;58913.53;5015835;28;20496;-72
2021/07/08 09:16:33;;;;;;;0.70;0.50;;;27.90;87.30;;;-143.50;100.00;58913.53;5000194;28;20439;-72
2021/07/08 09:19:09;;;;;;;0.70;0.50;;;28.40;77.40;;;-143.50;100.00;58913.53;4994333;28;20435;-73
2021/07/08 09:21:42;;;;;;;0.70;0.50;;;28.40;74.60;;;-143.50;100.00;58913.53;4985361;28;20920;-73
2021/07/08 09:24:14;;;;;;;0.70;0.50;;;28.70;70.90;;;-143.50;100.00;58913.53;4985378;28;20447;-73
2021/07/08 09:26:52;;;;;;;0.70;0.50;;;29.10;58.70;;;-143.50;100.00;58913.53;4985448;28;20454;-72
2021/07/08 09:29:23;;;;;;;0.70;0.50;;;29.20;61.40;;;-143.50;100.00;58913.53;4990996;28;20947;-73
2021/07/08 09:31:53;;;;;;;0.70;0.50;;;29.30;57.10;;;-143.50;100.00;58913.53;4993064;28;20530;-72
2021/07/08 09:34:24;;;;;;;0.70;0.60;;;29.10;55.60;;;-143.50;100.00;58913.53;4994514;28;20503;-72
2021/07/08 09:37:06;;;;;;;0.70;0.50;;;29.00;53.20;;;-143.50;100.00;58913.53;4994186;28;20438;-73
2021/07/08 09:39:37;;;;;;;0.70;0.50;;;28.90;54.70;;;-143.50;100.00;58913.53;4980914;28;20469;-73
2021/07/08 09:42:06;;;;;;;0.70;0.50;;;28.70;52.20;;;-143.50;100.00;58913.53;4988335;28;20443;-72
2021/07/08 09:44:35;;;;;;;0.80;0.60;;;28.70;50.00;;;-143.50;100.00;58913.53;4994199;28;20427;-72
2021/07/08 09:47:04;;;;;;;0.70;0.50;;;28.40;55.40;;;-143.50;100.00;58913.53;4993811;28;20441;-72
2021/07/08 09:49:32;;;;;;;0.70;0.50;;;27.90;54.60;;;-143.50;100.00;58913.53;4992649;28;20529;-72
2021/07/08 09:52:11;;;;;;;0.70;0.50;;;27.90;53.40;;;-143.50;100.00;58913.53;4994206;28;20411;-72
2021/07/08 09:57:41;;;;;;;0.70;0.50;;;28.20;53.90;;;-143.50;100.00;58913.53;5008119;28;20469;-73
2021/07/08 10:00:33;;;;;;;0.70;0.50;;;28.00;52.10;;;-143.50;100.00;58913.53;4960607;28;20454;-73
2021/07/08 10:03:04;;;;;;;0.70;0.50;;;27.50;54.70;;;-143.50;100.00;58913.53;4990391;28;20435;-73
2021/07/08 10:05:36;;;;;;;0.70;0.50;;;27.10;57.70;;;-143.50;100.00;58913.53;4993589;28;20422;-73
2021/07/08 10:08:09;;;;;;;0.70;0.50;;;26.80;59.00;;;-143.50;100.00;58913.53;4992540;28;20493;-73
2021/07/08 10:10:39;;;;;;;0.70;0.60;;;26.60;64.40;;;-143.50;100.00;58913.53;4991235;28;20442;-73
2021/07/08 10:13:08;;;;;;;0.70;0.50;;;26.70;61.20;;;-143.50;100.00;58913.53;4988357;28;20466;-73
2021/07/08 10:15:43;;;;;;;0.70;0.60;;;26.80;62.40;;;-143.50;100.00;58913.53;4993688;28;20431;-73
2021/07/08 10:18:17;;;;;;;0.70;0.60;;;26.80;64.80;;;-143.50;100.00;58913.53;4975491;28;20407;-73
2021/07/08 10:20:48;;;;;;;0.70;0.50;;;26.70;65.90;;;-143.50;100.00;58913.53;4992652;28;20446;-74
2021/07/08 10:23:38;;;;;;;0.70;0.60;;;26.60;70.00;;;-143.50;100.00;58913.53;4978830;28;20514;-74